createdAt,value
2023-06-15T00:00:58.469Z,4.68
2023-06-15T00:03:25.694Z,4.20
2023-06-15T00:05:53.603Z,3.97
2023-06-15T00:08:20.833Z,3.90
2023-06-15T00:10:48.519Z,4.43
2023-06-15T00:13:16.497Z,4.45
2023-06-15T00:15:43.393Z,4.25
2023-06-15T00:18:10.401Z,4.53
2023-06-15T00:20:38.688Z,3.53
2023-06-15T00:23:06.857Z,3.90
2023-06-15T00:25:34.442Z,5.65
2023-06-15T00:28:02.736Z,5.05
2023-06-15T00:30:29.528Z,4.18
2023-06-15T00:32:56.541Z,4.68
2023-06-15T00:35:23.667Z,6.07
2023-06-15T00:37:50.653Z,5.40
2023-06-15T00:40:17.725Z,4.05
2023-06-15T00:42:46.207Z,5.53
2023-06-15T00:45:13.582Z,4.25
2023-06-15T00:47:43.415Z,4.50
2023-06-15T00:50:11.710Z,4.90
2023-06-15T00:52:39.156Z,4.15
2023-06-15T00:55:06.654Z,4.95
2023-06-15T00:57:34.113Z,4.45
2023-06-15T01:00:01.343Z,4.35
2023-06-15T01:02:30.856Z,3.83
2023-06-15T01:04:58.099Z,4.70
2023-06-15T01:07:29.104Z,4.03
2023-06-15T01:09:57.582Z,4.43
2023-06-15T01:12:25.885Z,4.95
2023-06-15T01:14:53.110Z,4.78
2023-06-15T01:17:24.809Z,4.30
2023-06-15T01:20:05.132Z,4.95
2023-06-15T01:22:42.525Z,5.32
2023-06-15T01:25:17.913Z,3.83
2023-06-15T01:27:46.367Z,4.95
2023-06-15T01:30:14.297Z,4.15
2023-06-15T01:32:41.580Z,5.18
2023-06-15T01:35:10.587Z,4.63
2023-06-15T01:37:38.598Z,4.30
2023-06-15T01:40:06.179Z,4.93
2023-06-15T01:42:33.171Z,5.30
2023-06-15T01:45:00.733Z,4.28
2023-06-15T01:47:28.355Z,4.35
2023-06-15T01:49:56.299Z,4.80
2023-06-15T01:52:23.200Z,4.63
2023-06-15T01:54:50.169Z,5.20
2023-06-15T01:57:21.201Z,5.47
2023-06-15T01:59:48.138Z,5.20
2023-06-15T02:02:15.151Z,5.50
2023-06-15T02:04:41.987Z,4.95
2023-06-15T02:07:08.950Z,8.60
2023-06-15T02:09:35.748Z,6.93
2023-06-15T02:12:02.582Z,5.43
2023-06-15T02:14:29.428Z,4.97
2023-06-15T02:16:57.757Z,6.00
2023-06-15T02:19:25.102Z,5.75
2023-06-15T02:21:52.366Z,4.78
2023-06-15T02:24:19.705Z,4.82
2023-06-15T02:26:48.184Z,5.60
2023-06-15T02:29:15.565Z,5.65
2023-06-15T02:31:42.799Z,5.30
2023-06-15T02:34:10.053Z,5.15
2023-06-15T02:36:38.978Z,5.03
2023-06-15T02:39:06.273Z,4.85
2023-06-15T02:41:33.481Z,6.15
2023-06-15T02:44:02.630Z,5.38
2023-06-15T02:46:29.915Z,5.55
2023-06-15T02:48:58.199Z,5.18
2023-06-15T02:51:25.411Z,6.28
2023-06-15T02:53:52.632Z,5.13
2023-06-15T02:56:20.799Z,6.28
2023-06-15T02:58:58.322Z,5.78
2023-06-15T03:01:35.863Z,5.53
2023-06-15T03:04:03.057Z,6.15
2023-06-15T03:06:30.313Z,6.13
2023-06-15T03:08:57.490Z,6.00
2023-06-15T03:11:24.693Z,5.80
2023-06-15T03:13:51.881Z,6.10
2023-06-15T03:16:19.183Z,7.47
2023-06-15T03:18:46.811Z,5.70
2023-06-15T03:21:15.781Z,7.15
2023-06-15T03:23:43.997Z,6.88
2023-06-15T03:26:11.663Z,6.60
2023-06-15T03:28:39.437Z,7.43
2023-06-15T03:31:06.752Z,7.00
2023-06-15T03:33:34.044Z,6.72
2023-06-15T03:36:02.706Z,6.72
2023-06-15T03:38:29.881Z,7.05
2023-06-15T03:40:57.185Z,7.03
2023-06-15T03:43:24.900Z,6.15
2023-06-15T03:45:52.133Z,6.95
2023-06-15T03:48:19.586Z,7.13
2023-06-15T03:50:46.787Z,6.95
2023-06-15T03:53:14.727Z,6.55
2023-06-15T03:55:42.127Z,6.70
2023-06-15T03:58:09.593Z,5.88
2023-06-15T04:00:36.806Z,7.60
2023-06-15T04:03:05.132Z,6.55
2023-06-15T04:05:32.470Z,7.35
2023-06-15T04:08:00.908Z,7.68
2023-06-15T04:10:28.118Z,7.22
2023-06-15T04:12:55.458Z,6.85
2023-06-15T04:15:22.686Z,5.90
2023-06-15T04:17:49.959Z,6.75
2023-06-15T04:20:19.718Z,7.15
2023-06-15T04:22:46.956Z,7.50
2023-06-15T04:25:14.504Z,7.57
2023-06-15T04:27:42.096Z,7.38
2023-06-15T04:30:09.646Z,8.18
2023-06-15T04:32:37.537Z,7.93
2023-06-15T04:35:05.854Z,8.68
2023-06-15T04:37:33.797Z,9.05
2023-06-15T04:40:01.232Z,8.10
2023-06-15T04:42:33.307Z,7.18
2023-06-15T04:45:01.014Z,8.45
2023-06-15T04:47:28.205Z,8.05
2023-06-15T04:49:55.884Z,7.78
2023-06-15T04:52:23.202Z,7.68
2023-06-15T04:54:50.390Z,8.40
2023-06-15T04:57:17.619Z,7.65
2023-06-15T04:59:44.834Z,8.98
2023-06-15T05:02:12.069Z,7.85
2023-06-15T05:04:39.353Z,9.32
2023-06-15T05:07:06.685Z,7.50
2023-06-15T05:09:33.908Z,7.85
2023-06-15T05:12:02.386Z,7.63
2023-06-15T05:14:29.571Z,8.05
2023-06-15T05:16:56.988Z,7.43
2023-06-15T05:19:24.216Z,7.97
2023-06-15T05:21:51.850Z,7.68
2023-06-15T05:24:19.286Z,7.90
2023-06-15T05:26:46.608Z,7.70
2023-06-15T05:29:13.854Z,7.97
2023-06-15T05:31:41.197Z,7.68
2023-06-15T05:34:08.469Z,8.18
2023-06-15T05:36:55.077Z,8.48
2023-06-15T05:39:23.119Z,8.15
2023-06-15T05:41:50.503Z,8.20
2023-06-15T05:44:17.738Z,7.85
2023-06-15T05:46:45.065Z,7.32
2023-06-15T05:49:12.558Z,7.18
2023-06-15T05:51:39.873Z,7.35
2023-06-15T05:54:07.136Z,10.80
2023-06-15T05:56:34.373Z,9.38
2023-06-15T05:59:01.624Z,8.98
2023-06-15T06:01:28.907Z,8.00
2023-06-15T06:03:56.145Z,8.00
2023-06-15T06:06:23.434Z,6.80
2023-06-15T06:08:50.656Z,7.50
2023-06-15T06:11:17.905Z,7.47
2023-06-15T06:13:45.193Z,6.78
2023-06-15T06:16:12.492Z,7.88
2023-06-15T06:18:40.015Z,7.70
2023-06-15T06:21:07.699Z,8.13
2023-06-15T06:23:35.960Z,7.95
2023-06-15T06:26:03.742Z,6.95
2023-06-15T06:28:31.095Z,8.07
2023-06-15T06:30:58.383Z,7.15
2023-06-15T06:33:25.698Z,6.88
2023-06-15T06:35:52.946Z,7.93
2023-06-15T06:38:19.797Z,9.15
2023-06-15T06:40:46.700Z,5.68
2023-06-15T06:43:13.587Z,5.95
2023-06-15T06:45:40.728Z,6.20
2023-06-15T06:48:07.582Z,5.95
2023-06-15T06:50:34.540Z,5.70
2023-06-15T06:53:01.600Z,4.93
2023-06-15T06:55:28.382Z,7.80
2023-06-15T06:57:55.259Z,5.85
2023-06-15T07:00:22.702Z,5.93
2023-06-15T07:02:49.754Z,5.85
2023-06-15T07:05:17.058Z,5.43
2023-06-15T07:07:44.134Z,5.38
2023-06-15T07:10:11.890Z,6.15
2023-06-15T07:15:32.497Z,6.13
2023-06-15T07:17:59.923Z,5.32
2023-06-15T07:20:26.842Z,4.53
2023-06-15T07:22:53.766Z,4.18
2023-06-15T07:25:20.701Z,4.15
2023-06-15T07:27:47.993Z,4.60
2023-06-15T07:30:15.934Z,3.60
2023-06-15T07:32:43.032Z,4.18
2023-06-15T07:35:10.130Z,4.05
2023-06-15T07:37:36.973Z,4.47
2023-06-15T07:40:04.097Z,4.30
2023-06-15T07:42:30.943Z,5.30
2023-06-15T07:44:57.768Z,4.55
2023-06-15T07:47:24.627Z,5.45
2023-06-15T07:49:51.473Z,5.53
2023-06-15T07:52:20.795Z,3.95
2023-06-15T07:54:49.867Z,4.60
2023-06-15T07:57:16.671Z,3.95
2023-06-15T07:59:43.540Z,4.40
2023-06-15T08:02:10.486Z,3.85
2023-06-15T08:04:37.404Z,15.18
2023-06-15T08:07:04.503Z,13.60
2023-06-15T08:09:31.349Z,4.60
2023-06-15T08:11:58.140Z,3.95
2023-06-15T08:14:25.515Z,4.15
2023-06-15T08:16:52.422Z,3.92
2023-06-15T08:19:19.452Z,4.68
2023-06-15T08:21:46.424Z,4.65
2023-06-15T08:24:13.793Z,4.53
2023-06-15T08:26:41.478Z,5.00
2023-06-15T08:29:22.531Z,5.50
2023-06-15T08:31:50.074Z,4.30
2023-06-15T08:34:18.449Z,3.78
2023-06-15T08:36:45.315Z,4.35
2023-06-15T08:39:12.137Z,3.47
2023-06-15T08:41:39.587Z,4.05
2023-06-15T08:44:06.905Z,7.57
2023-06-15T08:46:33.928Z,4.32
2023-06-15T08:49:03.201Z,4.00
2023-06-15T08:51:30.532Z,4.32
2023-06-15T08:53:57.479Z,7.38
2023-06-15T08:56:24.735Z,4.15
2023-06-15T08:58:51.560Z,4.78
2023-06-15T09:01:23.617Z,3.95
2023-06-15T09:03:55.274Z,4.28
2023-06-15T09:06:23.821Z,3.92
2023-06-15T09:08:52.796Z,4.05
2023-06-15T09:11:19.907Z,5.93
2023-06-15T09:13:54.257Z,9.77
2023-06-15T09:16:33.572Z,6.80
2023-06-15T09:19:01.475Z,6.03
2023-06-15T09:21:30.194Z,5.28
2023-06-15T09:24:08.582Z,5.20
2023-06-15T09:26:38.113Z,4.70
2023-06-15T09:29:10.046Z,3.67
2023-06-15T09:31:37.867Z,7.35
2023-06-15T09:34:06.094Z,5.47
2023-06-15T09:36:45.411Z,3.90
2023-06-15T09:39:14.152Z,4.22
2023-06-15T09:41:59.931Z,5.25
2023-06-15T09:44:28.033Z,4.93
2023-06-15T09:46:58.947Z,4.93
2023-06-15T09:49:27.674Z,4.68
2023-06-15T09:51:56.121Z,4.32
2023-06-15T09:54:25.059Z,4.50
2023-06-15T09:56:54.154Z,4.63
2023-06-15T09:59:22.171Z,4.85
2023-06-15T10:01:51.301Z,4.47
2023-06-15T10:04:25.526Z,4.10
2023-06-15T10:06:57.390Z,4.32
2023-06-15T10:09:30.819Z,4.53
2023-06-15T10:12:07.883Z,4.32
2023-06-15T10:14:46.682Z,3.90
2023-06-15T10:17:16.273Z,4.25
2023-06-15T10:19:45.182Z,3.92
2023-06-15T10:22:20.002Z,3.85
2023-06-15T10:24:47.822Z,3.95
2023-06-15T10:27:16.512Z,4.40
2023-06-15T10:29:55.828Z,3.78
2023-06-15T10:32:29.629Z,3.85
2023-06-15T10:35:06.253Z,3.00
2023-06-15T10:37:44.885Z,4.13
2023-06-15T10:40:32.105Z,4.25
2023-06-15T10:43:01.799Z,3.78
2023-06-15T10:45:34.184Z,4.50
2023-06-15T10:48:02.915Z,8.00
2023-06-15T10:50:44.348Z,3.85
2023-06-15T10:53:23.583Z,3.40
2023-06-15T10:55:55.540Z,3.85
2023-06-15T10:58:23.030Z,3.75
2023-06-15T11:01:15.182Z,4.20
2023-06-15T11:03:43.188Z,4.25
2023-06-15T11:06:17.898Z,6.10
2023-06-15T11:08:53.511Z,4.20
2023-06-15T11:11:31.504Z,4.32
2023-06-15T11:14:06.282Z,3.88
2023-06-15T11:16:34.068Z,4.03
2023-06-15T11:19:21.308Z,3.67
2023-06-15T11:21:58.473Z,4.03
2023-06-15T11:24:26.934Z,3.47
2023-06-15T11:26:55.574Z,3.40
2023-06-15T11:29:27.099Z,3.38
2023-06-15T11:31:55.105Z,4.45
2023-06-15T11:34:22.087Z,6.82
2023-06-15T11:36:51.969Z,3.75
2023-06-15T11:39:25.147Z,4.60
2023-06-15T11:41:57.524Z,4.00
2023-06-15T11:44:26.492Z,2.90
2023-06-15T11:46:55.098Z,3.30
2023-06-15T11:49:22.880Z,3.00
2023-06-15T11:51:53.029Z,3.90
2023-06-15T11:54:36.800Z,3.55
2023-06-15T11:57:08.262Z,3.10
2023-06-15T11:59:36.771Z,3.65
2023-06-15T12:02:05.160Z,3.13
2023-06-15T12:04:33.031Z,3.17
2023-06-15T12:07:06.064Z,3.55
2023-06-15T12:09:33.630Z,4.13
2023-06-15T12:12:01.925Z,3.40
2023-06-15T12:14:28.990Z,3.58
2023-06-15T12:16:58.534Z,3.90
2023-06-15T12:19:27.399Z,3.47
2023-06-15T12:21:59.356Z,3.22
2023-06-15T12:24:26.363Z,3.22
2023-06-15T12:26:57.065Z,3.03
2023-06-15T12:29:24.196Z,3.75
2023-06-15T12:31:53.389Z,17.67
2023-06-15T12:34:30.164Z,6.13
2023-06-15T12:36:59.454Z,3.15
2023-06-15T12:39:28.772Z,3.58
2023-06-15T12:42:03.475Z,3.35
2023-06-15T12:44:33.017Z,7.03
2023-06-15T12:46:59.993Z,3.00
2023-06-15T12:49:26.950Z,3.05
2023-06-15T12:51:56.117Z,2.90
2023-06-15T12:54:23.729Z,3.42
2023-06-15T12:56:50.810Z,3.20
2023-06-15T12:59:17.970Z,3.75
2023-06-15T13:01:45.004Z,3.08
2023-06-15T13:04:12.426Z,3.75
2023-06-15T13:06:39.873Z,3.45
2023-06-15T13:09:06.857Z,5.53
2023-06-15T13:11:33.829Z,7.90
2023-06-15T13:14:00.846Z,3.88
2023-06-15T13:16:27.914Z,3.47
2023-06-15T13:18:55.107Z,3.03
2023-06-15T13:21:23.268Z,3.47
2023-06-15T13:23:50.569Z,3.28
2023-06-15T13:26:17.898Z,3.28
2023-06-15T13:28:44.834Z,2.75
2023-06-15T13:31:11.705Z,2.80
2023-06-15T13:33:39.961Z,3.05
2023-06-15T13:36:07.037Z,2.80
2023-06-15T13:38:33.993Z,3.13
2023-06-15T13:41:01.130Z,3.55
2023-06-15T13:43:28.177Z,3.20
2023-06-15T13:45:55.776Z,2.85
2023-06-15T13:48:23.427Z,4.13
2023-06-15T13:50:50.627Z,7.95
2023-06-15T13:53:20.114Z,3.83
2023-06-15T13:55:47.984Z,2.90
2023-06-15T13:58:15.042Z,3.38
2023-06-15T14:00:42.152Z,3.90
2023-06-15T14:03:09.253Z,3.92
2023-06-15T14:05:36.403Z,3.40
2023-06-15T14:08:03.682Z,2.67
2023-06-15T14:10:30.650Z,2.92
2023-06-15T14:12:57.952Z,3.30
2023-06-15T14:15:25.080Z,3.50
2023-06-15T14:17:52.691Z,3.25
2023-06-15T14:20:20.316Z,3.00
2023-06-15T14:22:49.752Z,3.80
2023-06-15T14:25:17.566Z,3.40
2023-06-15T14:27:48.241Z,3.38
2023-06-15T14:30:16.683Z,3.15
2023-06-15T14:32:43.976Z,3.40
2023-06-15T14:35:11.226Z,2.95
2023-06-15T14:37:38.149Z,3.28
2023-06-15T14:40:05.837Z,2.83
2023-06-15T14:42:32.957Z,3.97
2023-06-15T14:45:00.308Z,8.32
2023-06-15T14:47:27.285Z,3.72
2023-06-15T14:49:54.192Z,3.65
2023-06-15T14:52:21.403Z,3.03
2023-06-15T14:54:48.943Z,3.35
2023-06-15T14:57:15.865Z,3.35
2023-06-15T14:59:42.796Z,3.53
2023-06-15T15:02:09.797Z,3.75
2023-06-15T15:04:36.871Z,4.10
2023-06-15T15:07:04.146Z,3.25
2023-06-15T15:09:31.049Z,3.33
2023-06-15T15:11:57.978Z,3.33
2023-06-15T15:14:25.303Z,6.10
2023-06-15T15:16:53.029Z,3.45
2023-06-15T15:19:21.917Z,3.10
2023-06-15T15:21:49.837Z,3.15
2023-06-15T15:24:18.640Z,3.33
2023-06-15T15:26:45.753Z,3.13
2023-06-15T15:29:12.673Z,3.88
2023-06-15T15:31:39.608Z,3.30
2023-06-15T15:34:06.717Z,3.42
2023-06-15T15:36:33.659Z,3.15
2023-06-15T15:39:02.079Z,3.17
2023-06-15T15:41:29.025Z,3.13
2023-06-15T15:43:56.229Z,2.70
2023-06-15T15:46:23.387Z,3.67
2023-06-15T15:48:50.699Z,2.95
2023-06-15T15:51:17.947Z,3.70
2023-06-15T15:53:44.877Z,4.03
2023-06-15T15:56:11.846Z,3.85
2023-06-15T15:58:38.767Z,3.00
2023-06-15T16:01:05.630Z,3.47
2023-06-15T16:03:32.539Z,3.13
2023-06-15T16:05:59.611Z,3.03
2023-06-15T16:08:26.506Z,3.47
2023-06-15T16:10:53.381Z,3.80
2023-06-15T16:13:20.341Z,3.47
2023-06-15T16:15:55.698Z,3.20
2023-06-15T16:18:34.505Z,3.58
2023-06-15T16:21:01.689Z,2.70
2023-06-15T16:23:28.638Z,2.47
2023-06-15T16:25:56.116Z,3.75
2023-06-15T16:28:22.987Z,3.33
2023-06-15T16:30:50.190Z,4.10
2023-06-15T16:33:17.261Z,4.50
2023-06-15T16:35:44.219Z,3.80
2023-06-15T16:38:11.208Z,3.33
2023-06-15T16:40:39.367Z,3.72
2023-06-15T16:43:09.578Z,3.42
2023-06-15T16:45:36.545Z,3.53
2023-06-15T16:48:03.519Z,3.60
2023-06-15T16:50:30.387Z,3.40
2023-06-15T16:52:57.198Z,11.00
2023-06-15T16:55:24.102Z,8.23
2023-06-15T16:57:51.721Z,3.20
2023-06-15T17:00:22.006Z,4.40
2023-06-15T17:02:51.910Z,4.20
2023-06-15T17:05:22.211Z,4.90
2023-06-15T17:07:49.385Z,3.95
2023-06-15T17:10:16.504Z,3.47
2023-06-15T17:12:43.656Z,3.80
2023-06-15T17:15:10.924Z,3.67
2023-06-15T17:17:37.826Z,3.67
2023-06-15T17:20:05.119Z,3.47
2023-06-15T17:22:32.039Z,3.55
2023-06-15T17:25:00.591Z,3.55
2023-06-15T17:27:27.751Z,3.65
2023-06-15T17:29:54.752Z,3.28
2023-06-15T17:32:21.669Z,3.78
2023-06-15T17:34:51.894Z,3.60
2023-06-15T17:37:22.064Z,3.55
2023-06-15T17:39:49.403Z,3.50
2023-06-15T17:42:16.332Z,3.63
2023-06-15T17:44:43.345Z,3.40
2023-06-15T17:47:10.180Z,3.78
2023-06-15T17:49:37.021Z,3.90
2023-06-15T17:52:05.002Z,10.48
2023-06-15T17:54:31.890Z,10.93
2023-06-15T17:56:58.753Z,5.20
2023-06-15T17:59:25.608Z,3.67
2023-06-15T18:01:52.516Z,4.15
2023-06-15T18:04:19.449Z,3.83
2023-06-15T18:06:46.388Z,3.45
2023-06-15T18:09:14.408Z,4.00
2023-06-15T18:11:41.913Z,3.90
2023-06-15T18:14:11.013Z,4.45
2023-06-15T18:16:38.713Z,5.03
2023-06-15T18:19:05.794Z,6.85
2023-06-15T18:21:32.662Z,6.82
2023-06-15T18:23:59.647Z,4.72
2023-06-15T18:26:27.927Z,4.13
2023-06-15T18:28:56.316Z,4.93
2023-06-15T18:31:23.338Z,4.82
2023-06-15T18:33:50.470Z,4.25
2023-06-15T18:36:21.657Z,4.75
2023-06-15T18:38:48.992Z,3.75
2023-06-15T18:41:16.049Z,5.10
2023-06-15T18:43:42.881Z,4.72
2023-06-15T18:46:09.804Z,8.52
2023-06-15T18:48:37.415Z,9.85
2023-06-15T18:51:04.874Z,9.05
2023-06-15T18:53:31.745Z,9.70
2023-06-15T18:55:59.562Z,6.82
2023-06-15T18:58:27.010Z,5.05
2023-06-15T19:00:53.974Z,5.18
2023-06-15T19:03:21.188Z,4.90
2023-06-15T19:05:51.300Z,4.60
2023-06-15T19:08:19.839Z,4.70
2023-06-15T19:10:46.833Z,4.18
2023-06-15T19:13:13.786Z,3.45
2023-06-15T19:15:40.726Z,3.42
2023-06-15T19:18:07.994Z,3.92
2023-06-15T19:20:34.937Z,4.47
2023-06-15T19:23:01.837Z,3.38
2023-06-15T19:25:28.815Z,3.80
2023-06-15T19:27:55.696Z,3.53
2023-06-15T19:30:22.610Z,3.67
2023-06-15T19:32:50.412Z,3.80
2023-06-15T19:35:18.167Z,3.85
2023-06-15T19:37:45.390Z,3.90
2023-06-15T19:40:12.817Z,3.50
2023-06-15T19:42:41.565Z,3.92
2023-06-15T19:45:09.613Z,3.30
2023-06-15T19:47:41.267Z,4.63
2023-06-15T19:50:09.606Z,3.80
2023-06-15T19:52:36.470Z,3.95
2023-06-15T19:55:03.662Z,12.05
2023-06-15T19:57:30.587Z,16.33
2023-06-15T19:59:57.677Z,8.65
2023-06-15T20:02:24.795Z,4.20
2023-06-15T20:04:51.970Z,5.15
2023-06-15T20:07:19.287Z,5.88
2023-06-15T20:09:46.476Z,4.88
2023-06-15T20:12:13.483Z,4.97
2023-06-15T20:14:40.608Z,5.57
2023-06-15T20:17:07.590Z,5.45
2023-06-15T20:19:34.443Z,5.18
2023-06-15T20:22:03.647Z,5.45
2023-06-15T20:24:30.626Z,4.45
2023-06-15T20:26:57.686Z,4.80
2023-06-15T20:29:24.583Z,5.13
2023-06-15T20:31:51.508Z,4.57
2023-06-15T20:34:21.564Z,4.70
2023-06-15T20:36:48.930Z,4.45
2023-06-15T20:39:16.344Z,4.53
2023-06-15T20:41:43.265Z,4.40
2023-06-15T20:44:10.421Z,5.10
2023-06-15T20:46:37.368Z,5.22
2023-06-15T20:49:04.253Z,4.35
2023-06-15T20:51:31.280Z,4.53
2023-06-15T20:53:58.140Z,5.35
2023-06-15T20:56:25.046Z,10.48
2023-06-15T20:58:51.916Z,8.07
2023-06-15T21:01:19.057Z,5.00
2023-06-15T21:03:45.955Z,5.07
2023-06-15T21:06:13.392Z,4.53
2023-06-15T21:08:41.455Z,5.60
2023-06-15T21:11:08.389Z,4.78
2023-06-15T21:13:36.443Z,5.30
2023-06-15T21:16:06.114Z,6.75
2023-06-15T21:18:35.384Z,5.18
2023-06-15T21:21:02.483Z,4.90
2023-06-15T21:23:30.190Z,5.10
2023-06-15T21:25:57.692Z,4.75
2023-06-15T21:28:25.002Z,4.47
2023-06-15T21:30:52.248Z,4.95
2023-06-15T21:33:19.661Z,4.22
2023-06-15T21:35:46.999Z,4.93
2023-06-15T21:38:14.840Z,4.78
2023-06-15T21:40:42.309Z,3.90
2023-06-15T21:43:09.679Z,4.65
2023-06-15T21:45:36.933Z,4.60
2023-06-15T21:48:04.592Z,4.15
2023-06-15T21:50:31.970Z,4.35
2023-06-15T21:52:59.567Z,4.10
2023-06-15T21:55:30.963Z,4.22
2023-06-15T21:57:58.780Z,4.18
2023-06-15T22:00:28.005Z,13.23
2023-06-15T22:02:55.612Z,5.20
2023-06-15T22:05:23.043Z,5.35
2023-06-15T22:07:55.007Z,4.13
2023-06-15T22:10:22.644Z,4.45
2023-06-15T22:12:49.968Z,3.90
2023-06-15T22:15:16.851Z,7.43
2023-06-15T22:17:44.626Z,7.57
2023-06-15T22:20:13.006Z,5.20
2023-06-15T22:22:40.375Z,4.30
2023-06-15T22:25:07.904Z,4.38
2023-06-15T22:27:35.630Z,3.38
2023-06-15T22:30:02.944Z,3.72
2023-06-15T22:32:30.254Z,6.18
2023-06-15T22:34:57.272Z,5.45
2023-06-15T22:37:24.831Z,4.60
2023-06-15T22:39:51.800Z,4.45
2023-06-15T22:42:19.095Z,4.20
2023-06-15T22:44:46.217Z,4.15
2023-06-15T22:47:13.800Z,4.28
2023-06-15T22:49:43.593Z,4.18
2023-06-15T22:52:11.816Z,4.25
2023-06-15T22:54:39.925Z,4.35
2023-06-15T22:57:07.948Z,4.10
2023-06-15T22:59:34.905Z,4.30
2023-06-15T23:02:01.762Z,4.25
2023-06-15T23:04:28.791Z,4.68
2023-06-15T23:06:57.244Z,4.85
2023-06-15T23:09:24.141Z,3.55
2023-06-15T23:11:52.151Z,4.45
2023-06-15T23:14:22.892Z,4.88
2023-06-15T23:16:50.685Z,4.70
2023-06-15T23:19:20.906Z,4.10
2023-06-15T23:21:50.387Z,4.55
2023-06-15T23:27:04.108Z,4.85
2023-06-15T23:29:35.083Z,3.22
2023-06-15T23:32:02.301Z,4.57
2023-06-15T23:34:29.556Z,4.22
2023-06-15T23:36:56.829Z,4.80
2023-06-15T23:39:25.526Z,5.10
2023-06-15T23:41:52.737Z,4.28
2023-06-15T23:44:20.026Z,3.95
2023-06-15T23:46:49.580Z,3.95
2023-06-15T23:49:16.887Z,3.63
2023-06-15T23:51:44.133Z,4.15
2023-06-15T23:54:13.355Z,4.03
2023-06-15T23:56:40.801Z,4.13
2023-06-15T23:59:07.744Z,4.28
